createdAt,value
2018-12-05T00:01:06.818Z,5.60
2018-12-05T00:03:40.776Z,8.00
2018-12-05T00:06:14.855Z,7.47
2018-12-05T00:08:50.952Z,6.97
2018-12-05T00:11:24.835Z,12.07
2018-12-05T00:13:58.906Z,8.23
2018-12-05T00:16:33.472Z,9.90
2018-12-05T00:19:07.409Z,9.30
2018-12-05T00:21:41.294Z,9.83
2018-12-05T00:24:15.321Z,12.77
2018-12-05T00:26:49.515Z,7.77
2018-12-05T00:29:23.543Z,10.63
2018-12-05T00:31:57.611Z,10.60
2018-12-05T00:34:31.754Z,10.00
2018-12-05T00:37:05.889Z,16.37
2018-12-05T00:39:39.964Z,7.13
2018-12-05T00:42:13.835Z,8.30
2018-12-05T00:44:47.809Z,4.33
2018-12-05T00:47:21.881Z,14.60
2018-12-05T00:49:55.852Z,22.03
2018-12-05T00:52:29.737Z,15.37
2018-12-05T00:55:03.773Z,22.77
2018-12-05T00:57:37.774Z,11.10
2018-12-05T01:00:11.770Z,9.30
2018-12-05T01:02:45.727Z,17.30
2018-12-05T01:05:19.713Z,6.77
2018-12-05T01:07:53.600Z,8.53
2018-12-05T01:10:27.584Z,8.70
2018-12-05T01:13:01.600Z,8.47
2018-12-05T01:15:35.435Z,15.83
2018-12-05T01:18:09.412Z,6.60
2018-12-05T01:20:43.406Z,8.77
2018-12-05T01:23:17.483Z,13.67
2018-12-05T01:25:51.359Z,26.53
2018-12-05T01:28:25.487Z,12.07
2018-12-05T01:30:59.546Z,10.27
2018-12-05T01:33:33.463Z,10.33
2018-12-05T01:36:07.345Z,15.30
2018-12-05T01:38:41.545Z,6.70
2018-12-05T01:41:15.431Z,13.70
2018-12-05T01:43:49.716Z,16.73
2018-12-05T01:46:23.756Z,12.67
2018-12-05T01:48:57.715Z,10.57
2018-12-05T01:51:31.799Z,9.43
2018-12-05T01:54:05.807Z,22.70
2018-12-05T01:56:39.840Z,10.90
2018-12-05T01:59:14.169Z,18.40
2018-12-05T02:01:48.007Z,13.57
2018-12-05T02:04:21.990Z,11.30
2018-12-05T02:06:56.068Z,29.90
2018-12-05T02:09:29.963Z,12.20
2018-12-05T02:12:04.188Z,20.17
2018-12-05T02:14:38.183Z,13.67
2018-12-05T02:17:12.023Z,17.30
2018-12-05T02:19:46.011Z,13.53
2018-12-05T02:22:20.048Z,18.10
2018-12-05T02:24:54.063Z,13.57
2018-12-05T02:27:28.139Z,24.57
2018-12-05T02:30:02.168Z,14.00
2018-12-05T02:32:36.185Z,10.20
2018-12-05T02:35:10.185Z,16.53
2018-12-05T02:37:44.162Z,14.63
2018-12-05T02:40:18.096Z,14.77
2018-12-05T02:42:52.083Z,15.73
2018-12-05T02:45:26.066Z,15.87
2018-12-05T02:48:00.043Z,19.63
2018-12-05T02:50:34.160Z,16.80
2018-12-05T02:53:08.068Z,14.60
2018-12-05T02:55:42.077Z,12.57
2018-12-05T02:58:16.022Z,19.73
2018-12-05T03:00:50.077Z,14.40
2018-12-05T03:03:24.220Z,26.80
2018-12-05T03:05:58.112Z,30.77
2018-12-05T03:08:32.111Z,23.30
2018-12-05T03:11:06.154Z,16.87
2018-12-05T03:13:40.195Z,22.03
2018-12-05T03:16:14.472Z,20.67
2018-12-05T03:18:48.517Z,17.00
2018-12-05T03:21:22.428Z,21.30
2018-12-05T03:23:56.468Z,25.63
2018-12-05T03:26:30.527Z,17.07
2018-12-05T03:29:04.483Z,20.40
2018-12-05T03:31:38.492Z,14.73
2018-12-05T03:34:12.503Z,13.43
2018-12-05T03:36:47.213Z,17.40
2018-12-05T03:39:21.200Z,16.80
2018-12-05T03:41:55.208Z,17.30
2018-12-05T03:44:29.588Z,20.73
2018-12-05T03:47:03.485Z,17.20
2018-12-05T03:49:37.432Z,23.83
2018-12-05T03:52:11.481Z,20.00
2018-12-05T04:01:43.828Z,23.60
2018-12-05T04:04:17.850Z,14.60
2018-12-05T04:06:51.708Z,22.80
2018-12-05T04:09:25.800Z,17.90
2018-12-05T04:11:59.820Z,19.80
2018-12-05T04:14:33.915Z,17.80
2018-12-05T04:17:07.793Z,20.43
2018-12-05T04:19:41.801Z,13.17
2018-12-05T04:22:15.833Z,25.33
2018-12-05T04:24:49.680Z,19.13
2018-12-05T04:27:25.856Z,17.50
2018-12-05T04:29:59.897Z,17.60
2018-12-05T04:32:33.811Z,21.63
2018-12-05T04:35:07.691Z,20.23
2018-12-05T04:37:41.615Z,15.30
2018-12-05T04:40:15.670Z,22.77
2018-12-05T04:45:30.395Z,21.60
2018-12-05T04:48:04.302Z,15.40
2018-12-05T04:50:38.209Z,14.53
2018-12-05T04:53:12.071Z,20.83
2018-12-05T04:55:46.118Z,19.13
2018-12-05T04:58:20.021Z,13.20
2018-12-05T05:00:53.920Z,14.87
2018-12-05T05:03:27.916Z,23.83
2018-12-05T05:06:01.774Z,13.10
2018-12-05T05:08:35.800Z,12.40
2018-12-05T05:11:09.707Z,14.57
2018-12-05T05:13:43.741Z,15.37
2018-12-05T05:16:17.595Z,24.13
2018-12-05T05:18:51.694Z,17.10
2018-12-05T05:21:25.910Z,15.80
2018-12-05T05:23:59.955Z,19.27
2018-12-05T05:26:34.065Z,18.30
2018-12-05T05:29:08.087Z,18.27
2018-12-05T05:31:42.028Z,22.43
2018-12-05T05:34:22.561Z,16.97
2018-12-05T05:36:56.488Z,13.90
2018-12-05T05:39:30.600Z,25.37
2018-12-05T05:42:04.564Z,10.70
2018-12-05T05:44:38.521Z,16.13
2018-12-05T05:47:12.583Z,18.27
2018-12-05T05:49:46.625Z,16.77
2018-12-05T05:52:20.775Z,28.97
2018-12-05T05:54:54.772Z,29.60
2018-12-05T05:57:28.992Z,16.73
2018-12-05T06:00:03.164Z,21.70
2018-12-05T06:02:37.070Z,30.13
2018-12-05T06:05:11.123Z,24.30
2018-12-05T06:07:45.265Z,22.53
2018-12-05T06:10:19.332Z,27.60
2018-12-05T06:12:53.244Z,22.13
2018-12-05T06:15:27.177Z,27.60
2018-12-05T06:18:01.339Z,28.63
2018-12-05T06:20:35.442Z,26.77
2018-12-05T06:23:09.420Z,33.43
2018-12-05T06:25:43.521Z,29.83
2018-12-05T06:28:17.677Z,28.13
2018-12-05T06:30:51.598Z,35.10
2018-12-05T06:33:25.783Z,32.93
2018-12-05T06:35:59.984Z,30.17
2018-12-05T06:38:34.065Z,40.93
2018-12-05T06:41:08.199Z,36.33
2018-12-05T06:43:42.272Z,31.53
2018-12-05T06:46:16.252Z,35.70
2018-12-05T06:48:50.217Z,38.87
2018-12-05T06:51:24.257Z,33.70
2018-12-05T06:53:58.363Z,24.07
2018-12-05T06:56:32.584Z,44.27
2018-12-05T06:59:08.169Z,29.40
2018-12-05T07:01:42.225Z,32.17
2018-12-05T07:04:16.803Z,35.60
2018-12-05T07:06:50.812Z,35.97
2018-12-05T07:09:25.047Z,34.23
2018-12-05T07:11:59.286Z,32.90
2018-12-05T07:14:33.308Z,33.80
2018-12-05T07:17:07.592Z,34.27
2018-12-05T07:19:41.563Z,29.77
2018-12-05T07:22:15.662Z,32.93
2018-12-05T07:24:49.880Z,33.00
2018-12-05T07:27:24.373Z,20.90
2018-12-05T07:29:58.452Z,36.53
2018-12-05T07:32:32.665Z,40.23
2018-12-05T07:35:08.497Z,37.07
2018-12-05T07:37:42.467Z,33.30
2018-12-05T07:40:16.614Z,34.13
2018-12-05T07:42:50.814Z,34.23
2018-12-05T07:45:24.851Z,33.57
2018-12-05T07:47:58.846Z,29.67
2018-12-05T07:50:33.565Z,28.03
2018-12-05T07:53:07.852Z,35.23
2018-12-05T07:55:42.146Z,31.00
2018-12-05T07:58:16.553Z,34.13
2018-12-05T08:00:51.075Z,39.43
2018-12-05T08:03:25.338Z,29.53
2018-12-05T15:24:45.859Z,14.47
2018-12-05T15:27:21.919Z,25.30
2018-12-05T15:29:56.598Z,28.33
2018-12-05T15:32:31.193Z,24.80
2018-12-05T15:35:05.842Z,26.27
2018-12-05T15:37:40.284Z,27.93
2018-12-05T15:40:14.607Z,32.90
2018-12-05T15:42:48.818Z,25.10
2018-12-05T15:45:24.409Z,34.80
2018-12-05T15:48:01.960Z,32.17
2018-12-05T15:50:37.905Z,24.03
2018-12-05T15:53:13.340Z,25.40
2018-12-05T15:55:47.793Z,23.80
2018-12-05T15:58:23.174Z,23.07
2018-12-05T16:00:58.366Z,19.63
2018-12-05T16:03:33.368Z,30.73
2018-12-05T16:06:07.689Z,33.97
2018-12-05T16:08:42.195Z,25.47
2018-12-05T16:11:16.800Z,33.97
2018-12-05T16:13:51.014Z,28.10
2018-12-05T16:16:25.296Z,36.33
2018-12-05T16:18:59.735Z,31.73
2018-12-05T16:21:35.452Z,27.53
2018-12-05T16:24:14.536Z,35.20
2018-12-05T16:26:48.897Z,24.97
2018-12-05T16:29:23.526Z,28.43
2018-12-05T16:31:58.421Z,28.40
2018-12-05T16:34:32.817Z,22.60
2018-12-05T16:37:07.258Z,24.47
2018-12-05T16:39:41.962Z,30.10
2018-12-05T16:42:17.007Z,27.53
2018-12-05T16:44:50.979Z,37.33
2018-12-05T16:47:25.684Z,30.87
2018-12-05T16:50:00.329Z,26.07
2018-12-05T16:52:34.734Z,26.07
2018-12-05T16:55:09.983Z,34.57
2018-12-05T16:57:44.184Z,27.80
2018-12-05T17:00:20.075Z,32.03
2018-12-05T17:02:54.430Z,28.27
2018-12-05T17:05:29.102Z,30.03
2018-12-05T17:08:05.797Z,27.50
2018-12-05T17:10:40.072Z,27.60
2018-12-05T17:13:14.998Z,32.53
2018-12-05T17:15:50.148Z,33.57
2018-12-05T17:18:25.162Z,26.50
2018-12-05T17:21:01.460Z,32.47
2018-12-05T17:23:35.918Z,31.33
2018-12-05T17:26:10.286Z,41.10
2018-12-05T17:28:45.456Z,32.43
2018-12-05T17:31:20.384Z,28.90
2018-12-05T17:33:54.739Z,34.23
2018-12-05T17:36:29.149Z,29.63
2018-12-05T17:39:06.126Z,34.20
2018-12-05T17:41:41.061Z,39.97
2018-12-05T17:44:15.289Z,34.63
2018-12-05T17:46:50.493Z,30.00
2018-12-05T17:49:25.428Z,30.97
2018-12-05T17:51:59.636Z,43.67
2018-12-05T17:54:34.139Z,33.17
2018-12-05T17:57:08.334Z,27.77
2018-12-05T17:59:42.742Z,37.07
2018-12-05T18:02:16.839Z,43.60
2018-12-05T18:04:52.311Z,35.67
2018-12-05T18:07:27.571Z,38.10
2018-12-05T18:10:03.043Z,29.57
2018-12-05T18:12:37.473Z,32.00
2018-12-05T18:15:12.152Z,42.00
2018-12-05T18:17:46.470Z,40.53
2018-12-05T18:20:20.995Z,33.50
2018-12-05T18:22:55.354Z,39.87
2018-12-05T18:25:30.894Z,50.20
2018-12-05T18:28:05.255Z,35.33
2018-12-05T18:30:40.061Z,40.97
2018-12-05T18:33:14.440Z,35.47
2018-12-05T18:35:48.851Z,34.83
2018-12-05T18:38:23.969Z,32.40
2018-12-05T18:40:58.342Z,31.23
2018-12-05T18:43:32.504Z,34.83
2018-12-05T18:46:06.809Z,31.87
2018-12-05T18:48:42.990Z,40.30
2018-12-05T18:51:17.421Z,37.70
2018-12-05T18:53:51.723Z,30.53
2018-12-05T18:56:26.161Z,40.57
2018-12-05T18:59:00.661Z,37.77
2018-12-05T19:01:35.042Z,33.77
2018-12-05T19:04:09.707Z,37.47
2018-12-05T19:06:43.813Z,42.83
2018-12-05T19:09:26.725Z,35.77
2018-12-05T19:12:00.868Z,35.30
2018-12-05T19:14:40.494Z,32.77
2018-12-05T19:17:15.014Z,35.17
2018-12-05T19:19:49.114Z,34.50
2018-12-05T19:22:23.472Z,39.53
2018-12-05T19:24:57.599Z,33.97
2018-12-05T19:27:31.893Z,36.50
2018-12-05T19:30:07.482Z,36.87
2018-12-05T19:32:41.534Z,36.37
2018-12-05T19:35:16.500Z,43.53
2018-12-05T19:37:51.328Z,42.50
2018-12-05T19:40:25.918Z,39.80
2018-12-05T19:43:01.991Z,31.00
2018-12-05T19:45:36.298Z,32.53
2018-12-05T19:48:11.852Z,41.27
2018-12-05T19:50:45.909Z,49.30
2018-12-05T19:53:20.477Z,37.07
2018-12-05T19:55:57.614Z,38.00
2018-12-05T20:04:12.555Z,39.07
2018-12-05T20:06:52.175Z,56.40
2018-12-05T20:12:16.244Z,41.10
2018-12-05T20:14:50.841Z,37.53
2018-12-05T20:17:28.049Z,43.40
2018-12-05T20:20:04.693Z,46.77
2018-12-05T20:22:40.006Z,41.23
2018-12-05T20:25:15.742Z,47.80
2018-12-05T20:30:32.278Z,46.70
2018-12-05T20:33:07.772Z,37.57
2018-12-05T20:35:45.758Z,41.30
2018-12-05T20:38:20.376Z,44.10
2018-12-05T23:28:47.095Z,33.10
2018-12-05T23:31:21.176Z,31.40
2018-12-05T23:33:55.447Z,34.53
